sensor_id;sensor_type;location;lat;lon;timestamp;P1;durP1;ratioP1;P2;durP2;ratioP2
37495;SDS011;23346;52.088;4.746;2023-11-18T00:01:54;14.53;;;13.93;;
37495;SDS011;23346;52.088;4.746;2023-11-18T00:04:20;15.27;;;14.67;;
37495;SDS011;23346;52.088;4.746;2023-11-18T00:06:46;14.07;;;13.57;;
37495;SDS011;23346;52.088;4.746;2023-11-18T00:09:13;15.67;;;15.07;;
37495;SDS011;23346;52.088;4.746;2023-11-18T00:11:42;17.90;;;17.20;;
37495;SDS011;23346;52.088;4.746;2023-11-18T00:14:09;16.90;;;16.20;;
37495;SDS011;23346;52.088;4.746;2023-11-18T00:16:38;15.13;;;14.53;;
37495;SDS011;23346;52.088;4.746;2023-11-18T00:19:04;16.87;;;16.17;;
37495;SDS011;23346;52.088;4.746;2023-11-18T00:21:31;18.57;;;17.77;;
37495;SDS011;23346;52.088;4.746;2023-11-18T00:23:57;16.13;;;15.53;;
37495;SDS011;23346;52.088;4.746;2023-11-18T00:26:22;15.57;;;14.97;;
37495;SDS011;23346;52.088;4.746;2023-11-18T00:28:50;17.30;;;16.60;;
37495;SDS011;23346;52.088;4.746;2023-11-18T00:31:16;19.63;;;18.80;;
37495;SDS011;23346;52.088;4.746;2023-11-18T00:33:42;16.03;;;15.43;;
37495;SDS011;23346;52.088;4.746;2023-11-18T00:36:08;17.93;;;17.20;;
37495;SDS011;23346;52.088;4.746;2023-11-18T00:38:34;20.07;;;19.27;;
37495;SDS011;23346;52.088;4.746;2023-11-18T00:41:00;17.87;;;17.17;;
37495;SDS011;23346;52.088;4.746;2023-11-18T00:43:26;19.67;;;18.77;;
37495;SDS011;23346;52.088;4.746;2023-11-18T00:45:52;19.43;;;18.63;;
37495;SDS011;23346;52.088;4.746;2023-11-18T00:48:18;18.27;;;17.57;;
37495;SDS011;23346;52.088;4.746;2023-11-18T00:50:44;16.77;;;16.07;;
37495;SDS011;23346;52.088;4.746;2023-11-18T00:53:10;22.10;;;21.10;;
37495;SDS011;23346;52.088;4.746;2023-11-18T00:55:36;17.53;;;16.83;;
37495;SDS011;23346;52.088;4.746;2023-11-18T00:58:02;17.30;;;16.60;;
37495;SDS011;23346;52.088;4.746;2023-11-18T01:00:29;17.13;;;16.43;;
37495;SDS011;23346;52.088;4.746;2023-11-18T01:02:55;16.23;;;15.63;;
37495;SDS011;23346;52.088;4.746;2023-11-18T01:05:21;17.47;;;16.77;;
37495;SDS011;23346;52.088;4.746;2023-11-18T01:07:47;19.57;;;18.77;;
37495;SDS011;23346;52.088;4.746;2023-11-18T01:10:13;16.90;;;16.20;;
37495;SDS011;23346;52.088;4.746;2023-11-18T01:12:39;17.30;;;16.60;;
37495;SDS011;23346;52.088;4.746;2023-11-18T01:15:06;17.20;;;16.50;;
37495;SDS011;23346;52.088;4.746;2023-11-18T01:17:35;15.60;;;15.00;;
37495;SDS011;23346;52.088;4.746;2023-11-18T01:20:01;16.70;;;16.00;;
37495;SDS011;23346;52.088;4.746;2023-11-18T01:22:33;16.57;;;15.90;;
37495;SDS011;23346;52.088;4.746;2023-11-18T01:24:59;17.33;;;16.63;;
37495;SDS011;23346;52.088;4.746;2023-11-18T01:27:26;16.57;;;15.90;;
37495;SDS011;23346;52.088;4.746;2023-11-18T01:29:52;16.23;;;15.63;;
37495;SDS011;23346;52.088;4.746;2023-11-18T01:32:18;15.47;;;14.87;;
37495;SDS011;23346;52.088;4.746;2023-11-18T01:34:44;16.27;;;15.67;;
37495;SDS011;23346;52.088;4.746;2023-11-18T01:37:15;15.17;;;14.57;;
37495;SDS011;23346;52.088;4.746;2023-11-18T01:39:41;15.13;;;14.53;;
37495;SDS011;23346;52.088;4.746;2023-11-18T01:42:07;14.03;;;13.53;;
37495;SDS011;23346;52.088;4.746;2023-11-18T01:44:33;14.50;;;13.90;;
37495;SDS011;23346;52.088;4.746;2023-11-18T01:47:01;14.53;;;13.93;;
37495;SDS011;23346;52.088;4.746;2023-11-18T01:49:30;15.57;;;14.97;;
37495;SDS011;23346;52.088;4.746;2023-11-18T01:51:57;15.10;;;14.50;;
37495;SDS011;23346;52.088;4.746;2023-11-18T01:54:26;14.03;;;13.53;;
37495;SDS011;23346;52.088;4.746;2023-11-18T01:56:53;13.37;;;12.87;;
37495;SDS011;23346;52.088;4.746;2023-11-18T01:59:20;14.43;;;13.83;;
37495;SDS011;23346;52.088;4.746;2023-11-18T02:01:49;14.90;;;14.30;;
37495;SDS011;23346;52.088;4.746;2023-11-18T02:04:17;14.27;;;13.67;;
37495;SDS011;23346;52.088;4.746;2023-11-18T02:06:44;14.33;;;13.73;;
37495;SDS011;23346;52.088;4.746;2023-11-18T02:09:12;13.80;;;13.30;;
37495;SDS011;23346;52.088;4.746;2023-11-18T02:12:21;13.87;;;13.37;;
37495;SDS011;23346;52.088;4.746;2023-11-18T02:14:29;14.10;;;13.57;;
37495;SDS011;23346;52.088;4.746;2023-11-18T02:16:59;14.33;;;13.73;;
37495;SDS011;23346;52.088;4.746;2023-11-18T02:19:25;15.20;;;14.60;;
37495;SDS011;23346;52.088;4.746;2023-11-18T02:21:52;13.90;;;13.40;;
37495;SDS011;23346;52.088;4.746;2023-11-18T02:24:28;13.30;;;12.80;;
37495;SDS011;23346;52.088;4.746;2023-11-18T02:26:59;13.83;;;13.33;;
37495;SDS011;23346;52.088;4.746;2023-11-18T02:29:26;14.27;;;13.67;;
37495;SDS011;23346;52.088;4.746;2023-11-18T02:31:52;14.50;;;13.90;;
37495;SDS011;23346;52.088;4.746;2023-11-18T02:34:21;13.53;;;13.03;;
37495;SDS011;23346;52.088;4.746;2023-11-18T02:36:50;14.00;;;13.40;;
37495;SDS011;23346;52.088;4.746;2023-11-18T02:39:51;14.33;;;13.73;;
37495;SDS011;23346;52.088;4.746;2023-11-18T02:42:09;14.20;;;13.60;;
37495;SDS011;23346;52.088;4.746;2023-11-18T02:44:37;14.13;;;13.57;;
37495;SDS011;23346;52.088;4.746;2023-11-18T02:47:03;13.93;;;13.43;;
37495;SDS011;23346;52.088;4.746;2023-11-18T02:49:35;13.60;;;13.10;;
37495;SDS011;23346;52.088;4.746;2023-11-18T02:52:02;14.37;;;13.77;;
37495;SDS011;23346;52.088;4.746;2023-11-18T02:54:28;13.87;;;13.37;;
37495;SDS011;23346;52.088;4.746;2023-11-18T02:56:54;13.80;;;13.30;;
37495;SDS011;23346;52.088;4.746;2023-11-18T02:59:20;13.70;;;13.20;;
37495;SDS011;23346;52.088;4.746;2023-11-18T03:01:46;13.63;;;13.13;;
37495;SDS011;23346;52.088;4.746;2023-11-18T03:04:12;14.37;;;13.77;;
37495;SDS011;23346;52.088;4.746;2023-11-18T03:06:39;13.23;;;12.73;;
37495;SDS011;23346;52.088;4.746;2023-11-18T03:09:06;14.20;;;13.63;;
37495;SDS011;23346;52.088;4.746;2023-11-18T03:11:35;14.20;;;13.63;;
37495;SDS011;23346;52.088;4.746;2023-11-18T03:14:01;15.37;;;14.77;;
37495;SDS011;23346;52.088;4.746;2023-11-18T03:16:29;14.27;;;13.70;;
37495;SDS011;23346;52.088;4.746;2023-11-18T03:18:55;14.20;;;13.63;;
37495;SDS011;23346;52.088;4.746;2023-11-18T03:21:22;15.07;;;14.47;;
37495;SDS011;23346;52.088;4.746;2023-11-18T03:23:48;15.17;;;14.57;;
37495;SDS011;23346;52.088;4.746;2023-11-18T03:26:14;15.07;;;14.47;;
37495;SDS011;23346;52.088;4.746;2023-11-18T03:28:40;13.93;;;13.40;;
37495;SDS011;23346;52.088;4.746;2023-11-18T03:31:06;14.33;;;13.73;;
37495;SDS011;23346;52.088;4.746;2023-11-18T03:33:34;13.03;;;12.53;;
37495;SDS011;23346;52.088;4.746;2023-11-18T03:36:00;13.70;;;13.20;;
37495;SDS011;23346;52.088;4.746;2023-11-18T03:38:25;15.07;;;14.47;;
37495;SDS011;23346;52.088;4.746;2023-11-18T03:40:53;13.80;;;13.30;;
37495;SDS011;23346;52.088;4.746;2023-11-18T03:43:20;16.13;;;15.23;;
37495;SDS011;23346;52.088;4.746;2023-11-18T03:45:47;15.33;;;14.73;;
37495;SDS011;23346;52.088;4.746;2023-11-18T03:48:13;14.70;;;14.10;;
37495;SDS011;23346;52.088;4.746;2023-11-18T03:50:39;16.87;;;15.97;;
37495;SDS011;23346;52.088;4.746;2023-11-18T03:53:05;14.60;;;14.00;;
37495;SDS011;23346;52.088;4.746;2023-11-18T03:55:31;14.23;;;13.67;;
37495;SDS011;23346;52.088;4.746;2023-11-18T03:57:58;14.37;;;13.77;;
37495;SDS011;23346;52.088;4.746;2023-11-18T04:00:24;15.40;;;14.80;;
37495;SDS011;23346;52.088;4.746;2023-11-18T04:02:58;13.33;;;12.83;;
37495;SDS011;23346;52.088;4.746;2023-11-18T04:05:24;14.67;;;14.07;;
37495;SDS011;23346;52.088;4.746;2023-11-18T04:07:50;14.93;;;14.33;;
37495;SDS011;23346;52.088;4.746;2023-11-18T04:10:16;15.90;;;15.30;;
37495;SDS011;23346;52.088;4.746;2023-11-18T04:12:43;16.30;;;15.50;;
37495;SDS011;23346;52.088;4.746;2023-11-18T04:15:13;15.80;;;15.20;;
37495;SDS011;23346;52.088;4.746;2023-11-18T04:17:39;13.83;;;13.33;;
37495;SDS011;23346;52.088;4.746;2023-11-18T04:20:05;14.57;;;13.97;;
37495;SDS011;23346;52.088;4.746;2023-11-18T04:22:39;15.30;;;14.67;;
37495;SDS011;23346;52.088;4.746;2023-11-18T04:25:06;15.60;;;15.00;;
37495;SDS011;23346;52.088;4.746;2023-11-18T04:27:32;14.20;;;13.63;;
37495;SDS011;23346;52.088;4.746;2023-11-18T04:29:58;14.53;;;13.93;;
37495;SDS011;23346;52.088;4.746;2023-11-18T04:32:24;22.53;;;21.40;;
37495;SDS011;23346;52.088;4.746;2023-11-18T04:34:50;14.97;;;14.37;;
37495;SDS011;23346;52.088;4.746;2023-11-18T04:37:16;17.53;;;16.63;;
37495;SDS011;23346;52.088;4.746;2023-11-18T04:39:42;20.17;;;19.37;;
37495;SDS011;23346;52.088;4.746;2023-11-18T04:42:08;16.37;;;15.73;;
37495;SDS011;23346;52.088;4.746;2023-11-18T04:44:34;17.33;;;16.63;;
37495;SDS011;23346;52.088;4.746;2023-11-18T04:47:00;17.10;;;16.40;;
37495;SDS011;23346;52.088;4.746;2023-11-18T04:49:27;17.67;;;16.97;;
37495;SDS011;23346;52.088;4.746;2023-11-18T04:51:53;17.30;;;16.60;;
37495;SDS011;23346;52.088;4.746;2023-11-18T04:54:18;21.07;;;20.23;;
37495;SDS011;23346;52.088;4.746;2023-11-18T04:56:44;22.87;;;21.93;;
37495;SDS011;23346;52.088;4.746;2023-11-18T04:59:11;23.60;;;22.60;;
37495;SDS011;23346;52.088;4.746;2023-11-18T05:01:37;24.03;;;23.03;;
37495;SDS011;23346;52.088;4.746;2023-11-18T05:04:03;24.67;;;23.63;;
37495;SDS011;23346;52.088;4.746;2023-11-18T05:06:29;23.13;;;22.20;;
37495;SDS011;23346;52.088;4.746;2023-11-18T05:08:55;27.67;;;26.47;;
37495;SDS011;23346;52.088;4.746;2023-11-18T05:11:21;30.60;;;29.30;;
37495;SDS011;23346;52.088;4.746;2023-11-18T05:13:47;28.97;;;27.77;;
37495;SDS011;23346;52.088;4.746;2023-11-18T05:16:14;26.13;;;25.03;;
37495;SDS011;23346;52.088;4.746;2023-11-18T05:18:40;32.83;;;31.43;;
37495;SDS011;23346;52.088;4.746;2023-11-18T05:21:06;27.23;;;25.97;;
37495;SDS011;23346;52.088;4.746;2023-11-18T05:23:35;30.30;;;29.00;;
37495;SDS011;23346;52.088;4.746;2023-11-18T05:26:01;27.40;;;26.27;;
37495;SDS011;23346;52.088;4.746;2023-11-18T05:28:30;29.60;;;28.33;;
37495;SDS011;23346;52.088;4.746;2023-11-18T05:30:56;27.87;;;26.67;;
37495;SDS011;23346;52.088;4.746;2023-11-18T05:33:23;26.23;;;25.03;;
37495;SDS011;23346;52.088;4.746;2023-11-18T05:35:49;27.03;;;25.90;;
37495;SDS011;23346;52.088;4.746;2023-11-18T05:38:15;26.63;;;25.53;;
37495;SDS011;23346;52.088;4.746;2023-11-18T05:40:44;26.97;;;25.77;;
37495;SDS011;23346;52.088;4.746;2023-11-18T05:43:20;27.33;;;25.93;;
37495;SDS011;23346;52.088;4.746;2023-11-18T05:45:46;26.27;;;25.17;;
37495;SDS011;23346;52.088;4.746;2023-11-18T05:48:31;22.87;;;21.93;;
37495;SDS011;23346;52.088;4.746;2023-11-18T05:50:57;21.90;;;21.00;;
37495;SDS011;23346;52.088;4.746;2023-11-18T05:53:23;25.10;;;24.10;;
37495;SDS011;23346;52.088;4.746;2023-11-18T05:55:49;25.73;;;24.33;;
37495;SDS011;23346;52.088;4.746;2023-11-18T05:58:15;25.87;;;24.77;;
37495;SDS011;23346;52.088;4.746;2023-11-18T06:00:41;26.13;;;25.03;;
37495;SDS011;23346;52.088;4.746;2023-11-18T06:03:07;25.83;;;24.63;;
37495;SDS011;23346;52.088;4.746;2023-11-18T06:05:33;25.33;;;24.30;;
37495;SDS011;23346;52.088;4.746;2023-11-18T06:08:00;23.60;;;22.60;;
37495;SDS011;23346;52.088;4.746;2023-11-18T06:10:26;26.20;;;25.10;;
37495;SDS011;23346;52.088;4.746;2023-11-18T06:12:53;24.10;;;23.10;;
37495;SDS011;23346;52.088;4.746;2023-11-18T06:15:19;24.10;;;23.10;;
37495;SDS011;23346;52.088;4.746;2023-11-18T06:17:46;27.97;;;26.67;;
37495;SDS011;23346;52.088;4.746;2023-11-18T06:20:13;24.03;;;23.03;;
37495;SDS011;23346;52.088;4.746;2023-11-18T06:22:41;22.63;;;21.63;;
37495;SDS011;23346;52.088;4.746;2023-11-18T06:25:07;29.07;;;27.37;;
37495;SDS011;23346;52.088;4.746;2023-11-18T06:27:33;22.90;;;21.97;;
37495;SDS011;23346;52.088;4.746;2023-11-18T06:29:59;32.60;;;31.00;;
37495;SDS011;23346;52.088;4.746;2023-11-18T06:32:25;22.40;;;21.47;;
37495;SDS011;23346;52.088;4.746;2023-11-18T06:34:52;27.07;;;25.93;;
37495;SDS011;23346;52.088;4.746;2023-11-18T06:37:18;25.07;;;24.03;;
37495;SDS011;23346;52.088;4.746;2023-11-18T06:39:44;25.10;;;24.07;;
37495;SDS011;23346;52.088;4.746;2023-11-18T06:42:12;31.10;;;29.73;;
37495;SDS011;23346;52.088;4.746;2023-11-18T06:44:39;28.87;;;27.50;;
37495;SDS011;23346;52.088;4.746;2023-11-18T06:47:05;26.60;;;25.50;;
37495;SDS011;23346;52.088;4.746;2023-11-18T06:49:34;30.63;;;29.27;;
37495;SDS011;23346;52.088;4.746;2023-11-18T06:52:00;27.20;;;26.10;;
37495;SDS011;23346;52.088;4.746;2023-11-18T06:54:29;27.67;;;26.47;;
37495;SDS011;23346;52.088;4.746;2023-11-18T06:56:58;24.73;;;23.70;;
37495;SDS011;23346;52.088;4.746;2023-11-18T06:59:24;26.03;;;24.93;;
37495;SDS011;23346;52.088;4.746;2023-11-18T07:01:49;24.00;;;23.00;;
37495;SDS011;23346;52.088;4.746;2023-11-18T07:04:15;30.10;;;28.43;;
37495;SDS011;23346;52.088;4.746;2023-11-18T07:06:41;27.70;;;26.57;;
37495;SDS011;23346;52.088;4.746;2023-11-18T07:09:08;26.57;;;25.47;;
37495;SDS011;23346;52.088;4.746;2023-11-18T07:11:39;27.87;;;26.70;;
37495;SDS011;23346;52.088;4.746;2023-11-18T07:14:06;28.97;;;27.77;;
37495;SDS011;23346;52.088;4.746;2023-11-18T07:16:34;33.57;;;32.17;;
37495;SDS011;23346;52.088;4.746;2023-11-18T07:18:59;34.73;;;33.27;;
37495;SDS011;23346;52.088;4.746;2023-11-18T07:21:28;31.23;;;29.93;;
37495;SDS011;23346;52.088;4.746;2023-11-18T07:23:54;29.07;;;27.87;;
37495;SDS011;23346;52.088;4.746;2023-11-18T07:26:20;32.70;;;31.30;;
37495;SDS011;23346;52.088;4.746;2023-11-18T07:28:46;31.17;;;29.87;;
37495;SDS011;23346;52.088;4.746;2023-11-18T07:31:12;29.30;;;28.10;;
37495;SDS011;23346;52.088;4.746;2023-11-18T07:33:38;29.70;;;28.47;;
37495;SDS011;23346;52.088;4.746;2023-11-18T07:36:04;35.07;;;33.40;;
37495;SDS011;23346;52.088;4.746;2023-11-18T07:38:35;25.33;;;24.33;;
37495;SDS011;23346;52.088;4.746;2023-11-18T07:41:01;29.73;;;28.20;;
37495;SDS011;23346;52.088;4.746;2023-11-18T07:43:28;30.17;;;28.87;;
37495;SDS011;23346;52.088;4.746;2023-11-18T07:45:54;35.67;;;34.07;;
37495;SDS011;23346;52.088;4.746;2023-11-18T07:48:20;35.23;;;33.70;;
37495;SDS011;23346;52.088;4.746;2023-11-18T07:50:46;28.23;;;27.07;;
37495;SDS011;23346;52.088;4.746;2023-11-18T07:53:13;31.07;;;29.77;;
37495;SDS011;23346;52.088;4.746;2023-11-18T07:55:39;30.73;;;29.37;;
37495;SDS011;23346;52.088;4.746;2023-11-18T07:58:05;26.97;;;25.87;;
37495;SDS011;23346;52.088;4.746;2023-11-18T08:00:38;24.73;;;23.73;;
37495;SDS011;23346;52.088;4.746;2023-11-18T08:03:04;24.63;;;23.63;;
37495;SDS011;23346;52.088;4.746;2023-11-18T08:05:32;25.33;;;24.30;;
37495;SDS011;23346;52.088;4.746;2023-11-18T08:07:58;24.47;;;23.47;;
37495;SDS011;23346;52.088;4.746;2023-11-18T08:10:24;24.97;;;23.97;;
37495;SDS011;23346;52.088;4.746;2023-11-18T08:12:51;26.83;;;25.73;;
37495;SDS011;23346;52.088;4.746;2023-11-18T08:15:19;25.80;;;24.70;;
37495;SDS011;23346;52.088;4.746;2023-11-18T08:17:45;26.30;;;25.20;;
37495;SDS011;23346;52.088;4.746;2023-11-18T08:20:11;26.03;;;24.93;;
37495;SDS011;23346;52.088;4.746;2023-11-18T08:22:40;28.70;;;27.50;;
37495;SDS011;23346;52.088;4.746;2023-11-18T08:25:10;27.67;;;26.50;;
37495;SDS011;23346;52.088;4.746;2023-11-18T08:27:37;26.03;;;24.93;;
37495;SDS011;23346;52.088;4.746;2023-11-18T08:30:03;27.50;;;26.37;;
37495;SDS011;23346;52.088;4.746;2023-11-18T08:32:35;24.00;;;23.00;;
37495;SDS011;23346;52.088;4.746;2023-11-18T08:35:02;26.20;;;25.10;;
37495;SDS011;23346;52.088;4.746;2023-11-18T08:37:28;24.17;;;23.17;;
37495;SDS011;23346;52.088;4.746;2023-11-18T08:39:54;25.03;;;24.03;;
37495;SDS011;23346;52.088;4.746;2023-11-18T08:42:21;24.13;;;23.13;;
37495;SDS011;23346;52.088;4.746;2023-11-18T08:44:47;24.37;;;23.37;;
37495;SDS011;23346;52.088;4.746;2023-11-18T08:47:13;24.07;;;23.07;;
37495;SDS011;23346;52.088;4.746;2023-11-18T08:49:41;25.03;;;24.03;;
37495;SDS011;23346;52.088;4.746;2023-11-18T08:52:11;24.33;;;23.33;;
37495;SDS011;23346;52.088;4.746;2023-11-18T08:54:38;23.93;;;22.93;;
37495;SDS011;23346;52.088;4.746;2023-11-18T08:57:23;25.03;;;24.00;;
37495;SDS011;23346;52.088;4.746;2023-11-18T08:59:50;23.63;;;22.63;;
37495;SDS011;23346;52.088;4.746;2023-11-18T09:02:19;23.57;;;22.60;;
37495;SDS011;23346;52.088;4.746;2023-11-18T09:04:49;22.73;;;21.83;;
37495;SDS011;23346;52.088;4.746;2023-11-18T09:07:15;24.43;;;23.43;;
37495;SDS011;23346;52.088;4.746;2023-11-18T09:09:43;22.43;;;21.53;;
37495;SDS011;23346;52.088;4.746;2023-11-18T09:12:11;21.97;;;21.07;;
37495;SDS011;23346;52.088;4.746;2023-11-18T09:14:39;23.77;;;22.77;;
37495;SDS011;23346;52.088;4.746;2023-11-18T09:17:07;22.93;;;22.03;;
37495;SDS011;23346;52.088;4.746;2023-11-18T09:19:34;24.33;;;23.33;;
37495;SDS011;23346;52.088;4.746;2023-11-18T09:22:00;21.33;;;20.43;;
37495;SDS011;23346;52.088;4.746;2023-11-18T09:24:26;20.90;;;20.07;;
37495;SDS011;23346;52.088;4.746;2023-11-18T09:26:52;19.97;;;19.17;;
37495;SDS011;23346;52.088;4.746;2023-11-18T09:29:20;19.53;;;18.73;;
37495;SDS011;23346;52.088;4.746;2023-11-18T09:31:49;19.67;;;18.87;;
37495;SDS011;23346;52.088;4.746;2023-11-18T09:34:17;18.87;;;18.07;;
37495;SDS011;23346;52.088;4.746;2023-11-18T09:36:51;17.90;;;17.20;;
37495;SDS011;23346;52.088;4.746;2023-11-18T09:39:17;16.17;;;15.57;;
37495;SDS011;23346;52.088;4.746;2023-11-18T09:41:57;17.27;;;16.57;;
37495;SDS011;23346;52.088;4.746;2023-11-18T09:44:23;16.20;;;15.60;;
37495;SDS011;23346;52.088;4.746;2023-11-18T09:46:52;16.30;;;15.67;;
37495;SDS011;23346;52.088;4.746;2023-11-18T09:49:29;20.67;;;19.87;;
37495;SDS011;23346;52.088;4.746;2023-11-18T09:52:04;15.87;;;15.27;;
37495;SDS011;23346;52.088;4.746;2023-11-18T09:54:31;17.43;;;16.73;;
37495;SDS011;23346;52.088;4.746;2023-11-18T09:57:07;17.73;;;17.03;;
37495;SDS011;23346;52.088;4.746;2023-11-18T09:59:49;16.93;;;16.23;;
37495;SDS011;23346;52.088;4.746;2023-11-18T10:02:19;17.43;;;16.73;;
37495;SDS011;23346;52.088;4.746;2023-11-18T10:04:47;16.20;;;15.60;;
37495;SDS011;23346;52.088;4.746;2023-11-18T10:07:15;17.03;;;16.33;;
37495;SDS011;23346;52.088;4.746;2023-11-18T10:09:44;15.83;;;15.23;;
37495;SDS011;23346;52.088;4.746;2023-11-18T10:12:11;17.60;;;16.90;;
37495;SDS011;23346;52.088;4.746;2023-11-18T10:14:41;17.77;;;17.07;;
37495;SDS011;23346;52.088;4.746;2023-11-18T10:17:10;17.10;;;16.40;;
37495;SDS011;23346;52.088;4.746;2023-11-18T10:19:55;16.57;;;15.90;;
37495;SDS011;23346;52.088;4.746;2023-11-18T10:22:25;17.30;;;16.60;;
37495;SDS011;23346;52.088;4.746;2023-11-18T10:24:51;16.83;;;16.13;;
37495;SDS011;23346;52.088;4.746;2023-11-18T10:27:20;17.90;;;17.20;;
37495;SDS011;23346;52.088;4.746;2023-11-18T10:29:47;15.53;;;14.93;;
37495;SDS011;23346;52.088;4.746;2023-11-18T10:32:13;17.70;;;17.00;;
37495;SDS011;23346;52.088;4.746;2023-11-18T10:34:45;17.53;;;16.83;;
37495;SDS011;23346;52.088;4.746;2023-11-18T10:37:11;15.47;;;14.87;;
37495;SDS011;23346;52.088;4.746;2023-11-18T10:39:37;15.90;;;15.30;;
37495;SDS011;23346;52.088;4.746;2023-11-18T10:42:03;17.30;;;16.60;;
37495;SDS011;23346;52.088;4.746;2023-11-18T10:44:30;17.50;;;16.80;;
37495;SDS011;23346;52.088;4.746;2023-11-18T10:46:57;17.07;;;16.37;;
37495;SDS011;23346;52.088;4.746;2023-11-18T10:49:27;16.33;;;15.70;;
37495;SDS011;23346;52.088;4.746;2023-11-18T10:51:53;16.33;;;15.70;;
37495;SDS011;23346;52.088;4.746;2023-11-18T10:54:21;14.63;;;14.03;;
37495;SDS011;23346;52.088;4.746;2023-11-18T10:56:50;17.17;;;16.47;;
37495;SDS011;23346;52.088;4.746;2023-11-18T10:59:21;15.40;;;14.80;;
37495;SDS011;23346;52.088;4.746;2023-11-18T11:01:47;16.20;;;15.60;;
37495;SDS011;23346;52.088;4.746;2023-11-18T11:04:16;15.20;;;14.60;;
37495;SDS011;23346;52.088;4.746;2023-11-18T11:06:46;16.10;;;15.50;;
37495;SDS011;23346;52.088;4.746;2023-11-18T11:09:19;15.40;;;14.80;;
37495;SDS011;23346;52.088;4.746;2023-11-18T11:11:51;16.23;;;15.63;;
37495;SDS011;23346;52.088;4.746;2023-11-18T11:14:18;16.00;;;15.40;;
37495;SDS011;23346;52.088;4.746;2023-11-18T11:16:47;16.00;;;15.40;;
37495;SDS011;23346;52.088;4.746;2023-11-18T11:22:01;16.03;;;15.43;;
37495;SDS011;23346;52.088;4.746;2023-11-18T11:27:17;15.80;;;15.20;;
37495;SDS011;23346;52.088;4.746;2023-11-18T11:30:01;13.90;;;13.40;;
37495;SDS011;23346;52.088;4.746;2023-11-18T11:32:36;13.53;;;13.03;;
37495;SDS011;23346;52.088;4.746;2023-11-18T11:35:06;15.80;;;15.20;;
37495;SDS011;23346;52.088;4.746;2023-11-18T11:37:33;14.30;;;13.73;;
37495;SDS011;23346;52.088;4.746;2023-11-18T11:40:02;17.43;;;16.73;;
37495;SDS011;23346;52.088;4.746;2023-11-18T11:42:35;15.70;;;15.10;;
37495;SDS011;23346;52.088;4.746;2023-11-18T11:45:01;16.27;;;15.63;;
37495;SDS011;23346;52.088;4.746;2023-11-18T11:47:28;17.70;;;17.00;;
37495;SDS011;23346;52.088;4.746;2023-11-18T11:50:18;17.67;;;16.97;;
37495;SDS011;23346;52.088;4.746;2023-11-18T11:52:48;16.40;;;15.73;;
37495;SDS011;23346;52.088;4.746;2023-11-18T11:55:20;16.30;;;15.67;;
37495;SDS011;23346;52.088;4.746;2023-11-18T11:57:52;19.20;;;18.40;;
37495;SDS011;23346;52.088;4.746;2023-11-18T12:00:18;18.10;;;17.37;;
37495;SDS011;23346;52.088;4.746;2023-11-18T12:02:50;17.30;;;16.60;;
37495;SDS011;23346;52.088;4.746;2023-11-18T12:05:20;18.23;;;17.53;;
37495;SDS011;23346;52.088;4.746;2023-11-18T12:07:50;18.30;;;17.60;;
37495;SDS011;23346;52.088;4.746;2023-11-18T12:10:19;17.17;;;16.47;;
37495;SDS011;23346;52.088;4.746;2023-11-18T12:12:49;17.30;;;16.60;;
37495;SDS011;23346;52.088;4.746;2023-11-18T12:15:20;17.67;;;16.97;;
37495;SDS011;23346;52.088;4.746;2023-11-18T12:23:09;17.27;;;16.57;;
37495;SDS011;23346;52.088;4.746;2023-11-18T12:28:19;17.77;;;17.07;;
37495;SDS011;23346;52.088;4.746;2023-11-18T12:30:51;17.70;;;17.00;;
37495;SDS011;23346;52.088;4.746;2023-11-18T12:33:18;17.93;;;17.23;;
37495;SDS011;23346;52.088;4.746;2023-11-18T12:38:58;18.13;;;17.43;;
37495;SDS011;23346;52.088;4.746;2023-11-18T12:41:37;15.83;;;15.20;;
37495;SDS011;23346;52.088;4.746;2023-11-18T12:44:15;17.00;;;16.30;;
37495;SDS011;23346;52.088;4.746;2023-11-18T12:46:48;15.50;;;14.90;;
37495;SDS011;23346;52.088;4.746;2023-11-18T12:49:21;16.40;;;15.77;;
37495;SDS011;23346;52.088;4.746;2023-11-18T12:51:50;16.10;;;15.50;;
37495;SDS011;23346;52.088;4.746;2023-11-18T12:54:17;16.60;;;15.90;;
37495;SDS011;23346;52.088;4.746;2023-11-18T12:56:43;17.30;;;16.60;;
37495;SDS011;23346;52.088;4.746;2023-11-18T12:59:13;18.10;;;17.40;;
37495;SDS011;23346;52.088;4.746;2023-11-18T13:01:42;18.40;;;17.67;;
37495;SDS011;23346;52.088;4.746;2023-11-18T13:04:16;17.60;;;16.90;;
37495;SDS011;23346;52.088;4.746;2023-11-18T13:06:42;16.90;;;16.20;;
37495;SDS011;23346;52.088;4.746;2023-11-18T13:09:08;16.37;;;15.70;;
37495;SDS011;23346;52.088;4.746;2023-11-18T13:11:35;17.70;;;17.00;;
37495;SDS011;23346;52.088;4.746;2023-11-18T13:14:03;15.80;;;15.20;;
37495;SDS011;23346;52.088;4.746;2023-11-18T13:16:29;16.43;;;15.77;;
37495;SDS011;23346;52.088;4.746;2023-11-18T13:18:55;16.37;;;15.73;;
37495;SDS011;23346;52.088;4.746;2023-11-18T13:21:21;17.77;;;17.07;;
37495;SDS011;23346;52.088;4.746;2023-11-18T13:23:49;17.53;;;16.83;;
37495;SDS011;23346;52.088;4.746;2023-11-18T13:26:17;17.70;;;17.00;;
37495;SDS011;23346;52.088;4.746;2023-11-18T13:28:45;18.97;;;18.20;;
37495;SDS011;23346;52.088;4.746;2023-11-18T13:31:11;20.27;;;19.47;;
37495;SDS011;23346;52.088;4.746;2023-11-18T13:33:41;17.90;;;17.20;;
37495;SDS011;23346;52.088;4.746;2023-11-18T13:36:08;18.73;;;18.00;;
37495;SDS011;23346;52.088;4.746;2023-11-18T13:38:38;17.13;;;16.43;;
37495;SDS011;23346;52.088;4.746;2023-11-18T13:41:04;18.20;;;17.50;;
37495;SDS011;23346;52.088;4.746;2023-11-18T13:43:42;16.00;;;15.40;;
37495;SDS011;23346;52.088;4.746;2023-11-18T13:46:17;19.50;;;18.70;;
37495;SDS011;23346;52.088;4.746;2023-11-18T13:48:47;17.10;;;16.40;;
37495;SDS011;23346;52.088;4.746;2023-11-18T13:51:14;19.50;;;18.70;;
37495;SDS011;23346;52.088;4.746;2023-11-18T13:53:41;20.33;;;19.53;;
37495;SDS011;23346;52.088;4.746;2023-11-18T13:56:12;18.20;;;17.50;;
37495;SDS011;23346;52.088;4.746;2023-11-18T13:58:38;16.73;;;16.03;;
37495;SDS011;23346;52.088;4.746;2023-11-18T14:01:07;16.70;;;16.00;;
37495;SDS011;23346;52.088;4.746;2023-11-18T14:03:36;17.83;;;17.13;;
37495;SDS011;23346;52.088;4.746;2023-11-18T14:06:05;18.43;;;17.70;;
37495;SDS011;23346;52.088;4.746;2023-11-18T14:08:31;18.73;;;18.00;;
37495;SDS011;23346;52.088;4.746;2023-11-18T14:10:59;17.90;;;17.20;;
37495;SDS011;23346;52.088;4.746;2023-11-18T14:13:25;16.47;;;15.80;;
37495;SDS011;23346;52.088;4.746;2023-11-18T14:15:55;19.90;;;19.10;;
37495;SDS011;23346;52.088;4.746;2023-11-18T14:18:22;17.57;;;16.87;;
37495;SDS011;23346;52.088;4.746;2023-11-18T14:20:48;16.77;;;16.07;;
37495;SDS011;23346;52.088;4.746;2023-11-18T14:23:14;15.90;;;15.30;;
37495;SDS011;23346;52.088;4.746;2023-11-18T14:25:41;17.67;;;16.97;;
37495;SDS011;23346;52.088;4.746;2023-11-18T14:28:07;15.73;;;15.13;;
37495;SDS011;23346;52.088;4.746;2023-11-18T14:30:36;16.07;;;15.47;;
37495;SDS011;23346;52.088;4.746;2023-11-18T14:33:02;16.10;;;15.47;;
37495;SDS011;23346;52.088;4.746;2023-11-18T14:35:29;15.97;;;15.37;;
37495;SDS011;23346;52.088;4.746;2023-11-18T14:37:55;16.20;;;15.60;;
37495;SDS011;23346;52.088;4.746;2023-11-18T14:40:23;15.40;;;14.80;;
37495;SDS011;23346;52.088;4.746;2023-11-18T14:42:49;16.67;;;16.00;;